Time;durP1;ratioP1;P1;durP2;ratioP2;P2;SDS_P1;SDS_P2;PMS_P1;PMS_P2;Temp;Humidity;BMP_temperature;BMP_pressure;BME280_temperature;BME280_humidity;BME280_pressure;Samples;Min_cycle;Max_cycle;Signal;HPM_P1;HPM_P2
2021/05/14 00:01:49;;;;;;;0.57;0.50;;;;;;;;;;5072580;28;20063;-79
2021/05/14 00:04:18;;;;;;;0.50;0.40;;;;;;;;;;5073596;28;20027;-77
2021/05/14 00:06:45;;;;;;;0.55;0.55;;;;;;;;;;5072354;28;20493;-78
2021/05/14 00:09:11;;;;;;;3.05;0.95;;;;;;;;;;5090301;28;20020;-78
2021/05/14 00:11:37;;;;;;;0.50;0.50;;;;;;;;;;5086031;28;20481;-77
2021/05/14 00:14:03;;;;;;;0.63;0.60;;;;;;;;;;5071520;28;20027;-77
2021/05/14 00:16:29;;;;;;;0.98;0.77;;;;;;;;;;5074011;28;20033;-78
2021/05/14 00:18:55;;;;;;;1.05;0.75;;;;;;;;;;5076814;28;20028;-78
2021/05/14 00:21:21;;;;;;;0.77;0.50;;;;;;;;;;5077149;28;20119;-77
2021/05/14 00:23:47;;;;;;;1.13;0.68;;;;;;;;;;5076202;28;20025;-78
2021/05/14 00:26:13;;;;;;;1.52;0.70;;;;;;;;;;5075384;28;20020;-78
2021/05/14 00:28:39;;;;;;;0.70;0.70;;;;;;;;;;5075976;28;20020;-78
2021/05/14 00:31:06;;;;;;;1.52;0.82;;;;;;;;;;5074414;28;20033;-78
2021/05/14 00:33:32;;;;;;;0.82;0.55;;;;;;;;;;5055885;28;20033;-78
2021/05/14 00:35:58;;;;;;;1.13;0.60;;;;;;;;;;5056816;28;20391;-78
2021/05/14 00:38:24;;;;;;;1.02;0.70;;;;;;;;;;5056307;28;20144;-78
2021/05/14 00:40:50;;;;;;;3.10;0.88;;;;;;;;;;5061815;28;20024;-78
2021/05/14 00:43:16;;;;;;;1.10;0.60;;;;;;;;;;5076637;28;20016;-77
2021/05/14 00:45:42;;;;;;;1.15;0.50;;;;;;;;;;5074118;28;20094;-78
2021/05/14 00:48:08;;;;;;;0.88;0.45;;;;;;;;;;5074249;28;20025;-78
2021/05/14 00:50:34;;;;;;;0.60;0.60;;;;;;;;;;5075922;28;20036;-78
2021/05/14 00:53:00;;;;;;;0.60;0.55;;;;;;;;;;5074866;28;20032;-78
2021/05/14 00:55:26;;;;;;;0.52;0.52;;;;;;;;;;5075446;28;20040;-77
2021/05/14 00:57:52;;;;;;;0.60;0.60;;;;;;;;;;5075368;28;20039;-78
2021/05/14 01:00:19;;;;;;;1.55;0.57;;;;;;;;;;5073564;28;20115;-78
2021/05/14 01:02:45;;;;;;;0.82;0.60;;;;;;;;;;5088953;28;20033;-78
2021/05/14 01:05:11;;;;;;;0.93;0.55;;;;;;;;;;5075263;28;20100;-78
2021/05/14 01:07:37;;;;;;;1.38;0.73;;;;;;;;;;5075115;28;20059;-77
2021/05/14 01:10:03;;;;;;;1.00;0.70;;;;;;;;;;5073433;28;20028;-77
2021/05/14 01:12:29;;;;;;;1.67;0.65;;;;;;;;;;5072590;28;20032;-77
2021/05/14 01:14:55;;;;;;;0.77;0.52;;;;;;;;;;5073428;28;20020;-77
2021/05/14 01:17:22;;;;;;;1.25;0.95;;;;;;;;;;5073915;28;20029;-78
2021/05/14 01:19:49;;;;;;;0.68;0.60;;;;;;;;;;5074756;28;20036;-77
2021/05/14 01:22:15;;;;;;;0.95;0.52;;;;;;;;;;5081208;28;20523;-77
2021/05/14 01:24:42;;;;;;;0.95;0.75;;;;;;;;;;5079612;28;20037;-78
2021/05/14 01:27:08;;;;;;;0.70;0.60;;;;;;;;;;5074787;28;20492;-78
2021/05/14 01:29:34;;;;;;;0.65;0.63;;;;;;;;;;5074429;28;20058;-78
2021/05/14 01:32:00;;;;;;;3.40;0.80;;;;;;;;;;5066022;28;20043;-78
2021/05/14 01:34:26;;;;;;;0.93;0.70;;;;;;;;;;5074263;28;20048;-77
2021/05/14 01:36:53;;;;;;;0.57;0.57;;;;;;;;;;5074463;28;20630;-77
2021/05/14 01:39:23;;;;;;;0.40;0.40;;;;;;;;;;5091255;28;20029;-77
2021/05/14 01:41:49;;;;;;;1.00;0.73;;;;;;;;;;5078479;28;20017;-77
2021/05/14 01:44:15;;;;;;;1.98;0.70;;;;;;;;;;5075956;28;20064;-76
2021/05/14 01:46:41;;;;;;;0.73;0.60;;;;;;;;;;5075147;28;20044;-77
2021/05/14 01:49:07;;;;;;;1.65;0.60;;;;;;;;;;5074774;28;20032;-77
2021/05/14 01:51:33;;;;;;;0.50;0.50;;;;;;;;;;5074777;28;20032;-78
2021/05/14 01:54:00;;;;;;;0.50;0.50;;;;;;;;;;5073335;28;20024;-78
2021/05/14 01:56:26;;;;;;;0.95;0.68;;;;;;;;;;5073116;28;20028;-77
2021/05/14 01:58:52;;;;;;;1.30;0.45;;;;;;;;;;5073018;28;20035;-77
2021/05/14 02:01:18;;;;;;;1.42;0.65;;;;;;;;;;5071163;28;20027;-77
2021/05/14 02:03:45;;;;;;;0.82;0.60;;;;;;;;;;5072646;28;20052;-77
2021/05/14 02:06:11;;;;;;;0.77;0.60;;;;;;;;;;5072993;28;20024;-79
2021/05/14 02:08:37;;;;;;;0.40;0.40;;;;;;;;;;5073130;28;20127;-78
2021/05/14 02:11:04;;;;;;;0.40;0.40;;;;;;;;;;5085263;28;20036;-78
2021/05/14 02:13:30;;;;;;;0.88;0.50;;;;;;;;;;5092599;28;20028;-77
2021/05/14 02:15:57;;;;;;;0.98;0.60;;;;;;;;;;5076542;28;20025;-77
2021/05/14 02:18:23;;;;;;;0.45;0.35;;;;;;;;;;5073448;28;20020;-78
2021/05/14 02:20:49;;;;;;;1.27;0.35;;;;;;;;;;5073128;28;20393;-78
2021/05/14 02:23:15;;;;;;;0.70;0.60;;;;;;;;;;5072989;28;20161;-78
2021/05/14 02:25:41;;;;;;;1.20;0.50;;;;;;;;;;5073616;28;20025;-78
2021/05/14 02:28:08;;;;;;;0.40;0.40;;;;;;;;;;5074351;28;20042;-78
2021/05/14 02:30:35;;;;;;;0.57;0.40;;;;;;;;;;5073933;28;20338;-78
2021/05/14 02:33:01;;;;;;;0.95;0.47;;;;;;;;;;5073239;28;20055;-77
2021/05/14 02:35:27;;;;;;;0.50;0.50;;;;;;;;;;5089576;28;20027;-78
2021/05/14 02:37:53;;;;;;;2.00;0.40;;;;;;;;;;5074867;28;20482;-77
2021/05/14 02:40:19;;;;;;;1.45;0.50;;;;;;;;;;5075573;28;20039;-78
2021/05/14 02:42:46;;;;;;;1.95;0.68;;;;;;;;;;5078768;28;20039;-77
2021/05/14 02:45:12;;;;;;;0.57;0.52;;;;;;;;;;5095481;28;20032;-79
2021/05/14 02:47:39;;;;;;;1.10;0.65;;;;;;;;;;5077282;28;20031;-77
2021/05/14 02:50:06;;;;;;;1.63;0.52;;;;;;;;;;5075536;28;20036;-76
2021/05/14 02:52:32;;;;;;;0.70;0.70;;;;;;;;;;5074676;28;20039;-76
2021/05/14 02:54:58;;;;;;;0.93;0.50;;;;;;;;;;5072677;28;20044;-77
2021/05/14 02:57:24;;;;;;;1.13;0.80;;;;;;;;;;5075316;28;20696;-77
2021/05/14 02:59:50;;;;;;;0.40;0.40;;;;;;;;;;5075061;28;20536;-78
2021/05/14 03:02:16;;;;;;;0.65;0.50;;;;;;;;;;5075343;28;20021;-77
2021/05/14 03:04:42;;;;;;;0.63;0.60;;;;;;;;;;5090498;28;20017;-77
2021/05/14 03:07:08;;;;;;;3.00;0.70;;;;;;;;;;5075536;28;20028;-77
2021/05/14 03:09:34;;;;;;;1.38;0.90;;;;;;;;;;5076024;28;20043;-77
2021/05/14 03:12:01;;;;;;;0.80;0.50;;;;;;;;;;5075314;28;20023;-77
2021/05/14 03:14:53;;;;;;;1.05;0.63;;;;;;;;;;5091171;28;20096;-77
2021/05/14 03:17:19;;;;;;;3.03;0.60;;;;;;;;;;5077698;28;20051;-77
2021/05/14 03:19:45;;;;;;;1.00;0.35;;;;;;;;;;5078752;28;20133;-78
2021/05/14 03:22:11;;;;;;;1.05;0.60;;;;;;;;;;5080408;28;20017;-78
2021/05/14 03:24:37;;;;;;;0.68;0.60;;;;;;;;;;5086377;28;20033;-77
2021/05/14 03:27:04;;;;;;;0.85;0.40;;;;;;;;;;5082423;28;20025;-77
2021/05/14 03:29:30;;;;;;;0.93;0.43;;;;;;;;;;5076080;28;20025;-76
2021/05/14 03:31:56;;;;;;;1.17;0.50;;;;;;;;;;5078135;28;20016;-77
2021/05/14 03:34:22;;;;;;;0.60;0.60;;;;;;;;;;5080772;28;20039;-77
2021/05/14 03:36:48;;;;;;;0.30;0.22;;;;;;;;;;5079364;28;20031;-77
2021/05/14 03:39:15;;;;;;;0.50;0.50;;;;;;;;;;5079096;28;20035;-77
2021/05/14 03:41:51;;;;;;;0.85;0.70;;;;;;;;;;5076443;28;20021;-77
2021/05/14 03:44:17;;;;;;;0.40;0.40;;;;;;;;;;5077176;28;20028;-77
2021/05/14 03:46:43;;;;;;;0.28;0.28;;;;;;;;;;5081001;28;20111;-78
2021/05/14 03:49:10;;;;;;;0.88;0.50;;;;;;;;;;5083463;28;20381;-78
2021/05/14 03:51:37;;;;;;;0.57;0.35;;;;;;;;;;5100709;28;20019;-78
2021/05/14 03:54:04;;;;;;;0.47;0.40;;;;;;;;;;5100299;28;20043;-79
2021/05/14 03:56:36;;;;;;;0.45;0.40;;;;;;;;;;5099041;28;20076;-78
2021/05/14 03:59:02;;;;;;;;;;;;;;;;;;5085565;28;20116;-79
2021/05/14 04:01:28;;;;;;;0.30;0.30;;;;;;;;;;5080494;28;19904;-79
2021/05/14 04:03:55;;;;;;;1.38;0.40;;;;;;;;;;5080476;28;20035;-78
2021/05/14 04:06:21;;;;;;;0.32;0.32;;;;;;;;;;5080596;28;20032;-79
2021/05/14 04:08:47;;;;;;;0.60;0.60;;;;;;;;;;5080204;28;20009;-79
2021/05/14 04:16:26;;;;;;;1.75;0.63;;;;;;;;;;5080016;28;20028;-79
2021/05/14 04:18:52;;;;;;;1.90;0.40;;;;;;;;;;5078086;28;20073;-78
2021/05/14 04:21:19;;;;;;;0.47;0.47;;;;;;;;;;5073490;28;20025;-78
2021/05/14 04:23:45;;;;;;;1.85;0.40;;;;;;;;;;5064091;28;20029;-77
2021/05/14 04:26:11;;;;;;;0.50;0.50;;;;;;;;;;5069666;28;20025;-79
2021/05/14 04:28:37;;;;;;;0.60;0.60;;;;;;;;;;5070598;28;20024;-79
2021/05/14 04:31:03;;;;;;;0.50;0.32;;;;;;;;;;5090248;28;20033;-78
2021/05/14 04:33:29;;;;;;;0.90;0.30;;;;;;;;;;5094736;28;20036;-79
2021/05/14 04:35:55;;;;;;;1.75;0.43;;;;;;;;;;5094959;28;20015;-78
2021/05/14 04:38:21;;;;;;;0.57;0.47;;;;;;;;;;5095095;28;20082;-78
2021/05/14 04:40:47;;;;;;;0.57;0.55;;;;;;;;;;5094113;28;20039;-78
2021/05/14 04:43:14;;;;;;;1.60;0.65;;;;;;;;;;5094926;28;20046;-78
2021/05/14 04:45:40;;;;;;;0.95;0.47;;;;;;;;;;5089606;28;20021;-78
2021/05/14 04:48:09;;;;;;;1.15;0.50;;;;;;;;;;5090260;28;20025;-78
2021/05/14 04:50:36;;;;;;;0.68;0.60;;;;;;;;;;5090882;28;20027;-79
2021/05/14 04:53:04;;;;;;;1.50;0.60;;;;;;;;;;5089295;28;20039;-79
2021/05/14 04:55:30;;;;;;;0.30;0.30;;;;;;;;;;5089986;28;20021;-79
2021/05/14 04:57:56;;;;;;;1.33;0.70;;;;;;;;;;5090116;28;20025;-79
2021/05/14 05:00:23;;;;;;;0.75;0.50;;;;;;;;;;5072521;28;20104;-79
2021/05/14 05:02:49;;;;;;;2.25;0.65;;;;;;;;;;5077132;28;20020;-79
2021/05/14 05:05:15;;;;;;;0.73;0.45;;;;;;;;;;5075686;28;20397;-79
2021/05/14 05:07:41;;;;;;;0.93;0.60;;;;;;;;;;5070211;28;20021;-78
2021/05/14 05:10:07;;;;;;;0.40;0.40;;;;;;;;;;5090529;28;20143;-79
2021/05/14 05:12:33;;;;;;;0.43;0.32;;;;;;;;;;5082579;28;20109;-78
2021/05/14 05:15:00;;;;;;;0.70;0.50;;;;;;;;;;5081438;28;20028;-79
2021/05/14 05:17:26;;;;;;;0.40;0.40;;;;;;;;;;5082294;28;20044;-79
2021/05/14 05:19:52;;;;;;;0.70;0.40;;;;;;;;;;5081295;28;20070;-80
2021/05/14 05:22:18;;;;;;;1.00;0.40;;;;;;;;;;5082540;28;20040;-80
2021/05/14 05:24:44;;;;;;;0.70;0.40;;;;;;;;;;5086139;28;20054;-80
2021/05/14 05:27:10;;;;;;;0.70;0.40;;;;;;;;;;5086180;28;20505;-80
2021/05/14 05:29:37;;;;;;;0.55;0.35;;;;;;;;;;5086286;28;20032;-80
2021/05/14 05:32:03;;;;;;;0.70;0.30;;;;;;;;;;5086282;28;20025;-80
2021/05/14 05:34:29;;;;;;;1.17;0.22;;;;;;;;;;5085647;28;20051;-81
2021/05/14 05:36:56;;;;;;;0.30;0.28;;;;;;;;;;5086343;28;20025;-80
2021/05/14 05:39:22;;;;;;;0.50;0.50;;;;;;;;;;5083577;28;20027;-78
2021/05/14 05:41:48;;;;;;;1.00;0.40;;;;;;;;;;5082133;28;20016;-80
2021/05/14 05:44:15;;;;;;;0.85;0.55;;;;;;;;;;5087636;28;20017;-78
2021/05/14 05:46:41;;;;;;;0.93;0.30;;;;;;;;;;5089322;28;20028;-79
2021/05/14 05:49:07;;;;;;;0.30;0.30;;;;;;;;;;5087329;28;20491;-78
2021/05/14 05:51:33;;;;;;;0.60;0.47;;;;;;;;;;5088900;28;20084;-78
2021/05/14 05:53:59;;;;;;;0.55;0.40;;;;;;;;;;5082166;28;20032;-79
2021/05/14 05:56:26;;;;;;;0.68;0.32;;;;;;;;;;5086676;28;20441;-80
2021/05/14 05:58:52;;;;;;;0.40;0.40;;;;;;;;;;5082178;28;20048;-79
2021/05/14 06:01:18;;;;;;;0.68;0.50;;;;;;;;;;5082628;28;20096;-79
2021/05/14 06:03:44;;;;;;;0.52;0.52;;;;;;;;;;5083987;28;20043;-79
2021/05/14 06:06:10;;;;;;;0.40;0.40;;;;;;;;;;5084213;28;20040;-79
2021/05/14 06:08:37;;;;;;;1.13;0.80;;;;;;;;;;5083561;28;20029;-79
2021/05/14 06:11:03;;;;;;;0.68;0.68;;;;;;;;;;5079759;28;20074;-78
2021/05/14 06:13:30;;;;;;;1.60;0.80;;;;;;;;;;5077383;28;20025;-78
2021/05/14 06:15:59;;;;;;;1.50;0.45;;;;;;;;;;5084120;28;20039;-79
2021/05/14 06:18:26;;;;;;;1.30;0.80;;;;;;;;;;5085453;28;20091;-80
2021/05/14 06:20:53;;;;;;;0.85;0.40;;;;;;;;;;5087960;28;20040;-80
2021/05/14 06:23:19;;;;;;;0.65;0.60;;;;;;;;;;5087633;28;20021;-80
2021/05/14 06:25:45;;;;;;;1.48;0.68;;;;;;;;;;5089042;28;20037;-80
2021/05/14 06:28:19;;;;;;;0.57;0.57;;;;;;;;;;5088393;28;20080;-79
2021/05/14 06:30:45;;;;;;;0.60;0.60;;;;;;;;;;5072101;28;20033;-79
2021/05/14 06:33:11;;;;;;;0.82;0.60;;;;;;;;;;5090746;28;20016;-81
2021/05/14 06:35:39;;;;;;;0.50;0.40;;;;;;;;;;5091429;28;20035;-81
2021/05/14 06:38:05;;;;;;;1.45;0.60;;;;;;;;;;5088963;28;20044;-79
2021/05/14 06:40:31;;;;;;;1.13;0.40;;;;;;;;;;5087786;28;20036;-77
2021/05/14 06:42:58;;;;;;;0.63;0.47;;;;;;;;;;5089157;28;20456;-79
2021/05/14 06:45:24;;;;;;;0.90;0.30;;;;;;;;;;5089109;28;20471;-78
2021/05/14 06:47:50;;;;;;;0.47;0.20;;;;;;;;;;5083495;28;20052;-77
2021/05/14 06:50:16;;;;;;;0.93;0.57;;;;;;;;;;5091436;28;20044;-78
2021/05/14 06:52:42;;;;;;;0.30;0.30;;;;;;;;;;5092124;28;20035;-78
2021/05/14 06:55:09;;;;;;;0.57;0.57;;;;;;;;;;5092088;28;20036;-80
2021/05/14 06:57:36;;;;;;;0.63;0.40;;;;;;;;;;5088920;28;20055;-78
2021/05/14 07:00:02;;;;;;;3.75;1.70;;;;;;;;;;5088189;28;20039;-79
2021/05/14 07:02:28;;;;;;;1.33;0.90;;;;;;;;;;5087364;28;20020;-78
2021/05/14 07:04:54;;;;;;;1.10;0.80;;;;;;;;;;5084824;28;20024;-79
2021/05/14 07:07:21;;;;;;;1.13;0.77;;;;;;;;;;5087486;28;20028;-77
2021/05/14 07:09:47;;;;;;;3.92;1.02;;;;;;;;;;5082763;28;20028;-77
2021/05/14 07:12:13;;;;;;;1.25;0.70;;;;;;;;;;5082992;28;20460;-76
2021/05/14 07:14:39;;;;;;;1.65;0.60;;;;;;;;;;5076405;28;20032;-77
2021/05/14 07:17:05;;;;;;;3.28;0.70;;;;;;;;;;5077215;28;20115;-78
2021/05/14 07:19:31;;;;;;;1.60;0.98;;;;;;;;;;5077548;28;20028;-77
2021/05/14 07:21:57;;;;;;;1.67;0.57;;;;;;;;;;5077968;28;20024;-84
2021/05/14 07:24:24;;;;;;;0.40;0.40;;;;;;;;;;5078609;28;20032;-79
2021/05/14 07:26:50;;;;;;;0.90;0.60;;;;;;;;;;5080948;28;20040;-79
2021/05/14 07:29:16;;;;;;;1.42;0.88;;;;;;;;;;5082121;28;20017;-80
2021/05/14 07:31:42;;;;;;;0.95;0.50;;;;;;;;;;5083021;28;20099;-78
2021/05/14 07:34:08;;;;;;;2.75;0.38;;;;;;;;;;5088411;28;20042;-78
2021/05/14 07:36:34;;;;;;;0.52;0.20;;;;;;;;;;5090664;28;20029;-80
2021/05/14 07:39:00;;;;;;;0.68;0.47;;;;;;;;;;5086324;28;20052;-80
2021/05/14 07:41:26;;;;;;;1.30;0.77;;;;;;;;;;5084831;28;20052;-80
2021/05/14 07:43:53;;;;;;;1.17;0.68;;;;;;;;;;5085437;28;20031;-80
2021/05/14 07:46:19;;;;;;;2.60;0.75;;;;;;;;;;5089733;28;20040;-79
2021/05/14 07:48:47;;;;;;;2.47;0.52;;;;;;;;;;5087962;28;20020;-81
2021/05/14 07:51:13;;;;;;;0.50;0.50;;;;;;;;;;5090120;28;20043;-80
2021/05/14 07:53:40;;;;;;;1.00;0.60;;;;;;;;;;5110496;28;20033;-83
2021/05/14 07:56:06;;;;;;;0.70;0.60;;;;;;;;;;5088599;28;20040;-82
2021/05/14 07:58:32;;;;;;;0.45;0.40;;;;;;;;;;5084316;28;20025;-82
2021/05/14 08:00:58;;;;;;;2.45;0.90;;;;;;;;;;5081126;28;20020;-82
2021/05/14 08:03:24;;;;;;;0.50;0.40;;;;;;;;;;5082288;28;20460;-82
2021/05/14 08:05:50;;;;;;;1.00;0.60;;;;;;;;;;5081052;28;20024;-83
2021/05/14 08:08:19;;;;;;;0.45;0.40;;;;;;;;;;5082785;28;20025;-82
2021/05/14 08:10:45;;;;;;;0.30;0.30;;;;;;;;;;5081243;28;20024;-82
2021/05/14 08:13:11;;;;;;;0.35;0.30;;;;;;;;;;5084340;28;20051;-82
2021/05/14 08:15:39;;;;;;;0.88;0.32;;;;;;;;;;5084072;28;20016;-82
2021/05/14 08:18:05;;;;;;;1.95;0.45;;;;;;;;;;5088750;28;20059;-82
2021/05/14 08:20:31;;;;;;;1.88;0.40;;;;;;;;;;5093767;28;20033;-83
2021/05/14 08:22:58;;;;;;;1.33;0.30;;;;;;;;;;5087068;28;20040;-83
2021/05/14 08:25:24;;;;;;;0.40;0.40;;;;;;;;;;5087444;28;20071;-80
2021/05/14 08:27:50;;;;;;;0.38;0.30;;;;;;;;;;5086556;28;20020;-82
2021/05/14 08:30:16;;;;;;;0.73;0.40;;;;;;;;;;5085783;28;20021;-82
2021/05/14 08:32:42;;;;;;;1.35;0.45;;;;;;;;;;5085319;28;20020;-83
2021/05/14 08:35:09;;;;;;;1.60;0.60;;;;;;;;;;5084210;28;20032;-82
2021/05/14 08:37:37;;;;;;;1.38;0.25;;;;;;;;;;5086053;28;20508;-81
2021/05/14 08:40:05;;;;;;;1.80;0.52;;;;;;;;;;5091180;28;20019;-81
2021/05/14 08:42:31;;;;;;;0.35;0.20;;;;;;;;;;5091798;28;20391;-81
2021/05/14 08:44:57;;;;;;;0.47;0.30;;;;;;;;;;5090425;28;20029;-82
2021/05/14 08:47:24;;;;;;;0.35;0.20;;;;;;;;;;5088341;28;20024;-82
2021/05/14 08:49:50;;;;;;;1.85;0.50;;;;;;;;;;5090462;28;20035;-82
2021/05/14 08:52:18;;;;;;;0.98;0.40;;;;;;;;;;5089128;28;20469;-82
2021/05/14 08:54:47;;;;;;;0.30;0.30;;;;;;;;;;5088334;28;20190;-83
2021/05/14 08:57:13;;;;;;;0.35;0.30;;;;;;;;;;5066164;28;20037;-83
2021/05/14 08:59:39;;;;;;;1.35;0.47;;;;;;;;;;5090745;28;20051;-81
2021/05/14 09:02:05;;;;;;;1.88;0.40;;;;;;;;;;5086292;28;20074;-81
2021/05/14 09:04:33;;;;;;;0.32;0.32;;;;;;;;;;5090370;28;20013;-82
2021/05/14 09:07:00;;;;;;;0.88;0.40;;;;;;;;;;5087454;28;20445;-81
2021/05/14 09:09:26;;;;;;;1.13;0.40;;;;;;;;;;5086658;28;20096;-82
2021/05/14 09:11:53;;;;;;;2.13;0.47;;;;;;;;;;5084320;28;20048;-81
2021/05/14 09:14:41;;;;;;;0.75;0.50;;;;;;;;;;5085656;28;20080;-81
2021/05/14 09:17:14;;;;;;;0.40;0.20;;;;;;;;;;5083880;28;20112;-81
2021/05/14 09:19:41;;;;;;;1.77;0.30;;;;;;;;;;5092106;28;20025;-81
2021/05/14 09:22:12;;;;;;;1.50;0.40;;;;;;;;;;5088805;28;20027;-80
2021/05/14 09:24:39;;;;;;;0.47;0.40;;;;;;;;;;5080601;28;20064;-81
2021/05/14 09:27:24;;;;;;;0.20;0.20;;;;;;;;;;5082193;28;20453;-82
2021/05/14 09:29:50;;;;;;;1.25;0.50;;;;;;;;;;5071915;28;20025;-82
2021/05/14 09:32:20;;;;;;;1.67;0.40;;;;;;;;;;5082556;28;20048;-83
2021/05/14 09:34:47;;;;;;;0.57;0.40;;;;;;;;;;5082771;28;20473;-83
2021/05/14 09:37:14;;;;;;;0.60;0.40;;;;;;;;;;5082830;28;20037;-84
2021/05/14 09:39:40;;;;;;;0.55;0.32;;;;;;;;;;5082122;28;20033;-81
2021/05/14 09:42:06;;;;;;;0.30;0.30;;;;;;;;;;5082161;28;20032;-83
2021/05/14 09:44:32;;;;;;;2.53;0.45;;;;;;;;;;5090293;28;20021;-83
2021/05/14 09:46:58;;;;;;;0.30;0.30;;;;;;;;;;5090962;28;20080;-82
2021/05/14 09:49:27;;;;;;;0.20;0.20;;;;;;;;;;5092825;28;20024;-81
2021/05/14 09:51:54;;;;;;;0.55;0.40;;;;;;;;;;5090803;28;20027;-83
2021/05/14 09:54:29;;;;;;;0.40;0.40;;;;;;;;;;5093166;28;20041;-82
2021/05/14 09:57:15;;;;;;;1.17;0.30;;;;;;;;;;5092599;28;20055;-82
2021/05/14 09:59:42;;;;;;;0.25;0.25;;;;;;;;;;5092470;22;20033;-83
2021/05/14 10:02:20;;;;;;;2.67;0.60;;;;;;;;;;5090941;28;20040;-82
2021/05/14 10:04:46;;;;;;;0.38;0.35;;;;;;;;;;5094002;28;20035;-82
2021/05/14 10:07:12;;;;;;;0.30;0.30;;;;;;;;;;5092812;28;20055;-82
2021/05/14 10:09:40;;;;;;;0.82;0.40;;;;;;;;;;5088311;28;20044;-82
2021/05/14 10:12:08;;;;;;;2.40;0.60;;;;;;;;;;5086323;28;20064;-82
2021/05/14 10:14:35;;;;;;;1.27;0.50;;;;;;;;;;5081031;28;20060;-83
2021/05/14 10:17:01;;;;;;;0.82;0.22;;;;;;;;;;5074438;28;20001;-82
2021/05/14 10:19:32;;;;;;;0.50;0.38;;;;;;;;;;5073373;28;20112;-83
2021/05/14 10:21:58;;;;;;;2.17;0.30;;;;;;;;;;5069154;28;20061;-83
2021/05/14 10:24:40;;;;;;;0.75;0.30;;;;;;;;;;5068715;28;20124;-82
2021/05/14 10:27:29;;;;;;;0.30;0.30;;;;;;;;;;5065918;28;20106;-84
2021/05/14 10:29:56;;;;;;;0.50;0.40;;;;;;;;;;5066976;28;20040;-83
2021/05/14 10:32:41;;;;;;;2.53;0.50;;;;;;;;;;5079539;28;20040;-82
2021/05/14 10:35:08;;;;;;;1.00;0.40;;;;;;;;;;5063019;28;20116;-82
2021/05/14 10:37:53;;;;;;;2.15;0.32;;;;;;;;;;5060195;28;20040;-82
2021/05/14 10:40:32;;;;;;;0.35;0.30;;;;;;;;;;5062406;28;20056;-83
2021/05/14 10:42:59;;;;;;;1.17;0.50;;;;;;;;;;5075717;28;20028;-83
2021/05/14 10:45:42;;;;;;;0.82;0.20;;;;;;;;;;5062359;28;20056;-83
2021/05/14 10:48:21;;;;;;;0.10;0.10;;;;;;;;;;5063434;28;20035;-83
2021/05/14 10:50:52;;;;;;;0.70;0.30;;;;;;;;;;5056275;28;20453;-83
2021/05/14 10:53:20;;;;;;;0.30;0.30;;;;;;;;;;5057999;28;20037;-83
2021/05/14 10:55:47;;;;;;;0.75;0.38;;;;;;;;;;5059595;28;20036;-83
2021/05/14 10:58:31;;;;;;;0.50;0.40;;;;;;;;;;5064961;28;20085;-83
2021/05/14 11:00:57;;;;;;;0.57;0.40;;;;;;;;;;5055106;28;20033;-83
2021/05/14 11:03:31;;;;;;;1.70;0.25;;;;;;;;;;5062707;28;20031;-82
2021/05/14 11:06:24;;;;;;;0.40;0.40;;;;;;;;;;5062638;28;20021;-83
2021/05/14 11:09:13;;;;;;;0.38;0.30;;;;;;;;;;5056517;28;20509;-83
2021/05/14 11:11:57;;;;;;;0.30;0.20;;;;;;;;;;5061428;28;20036;-83
2021/05/14 11:14:24;;;;;;;2.30;0.50;;;;;;;;;;5051617;28;20029;-83
2021/05/14 11:16:54;;;;;;;1.10;0.40;;;;;;;;;;5046652;28;20494;-81
2021/05/14 11:19:24;;;;;;;0.45;0.30;;;;;;;;;;5040782;28;20049;-82
2021/05/14 11:21:57;;;;;;;0.60;0.20;;;;;;;;;;5038077;28;20029;-83
2021/05/14 11:24:27;;;;;;;2.53;0.40;;;;;;;;;;5040252;28;20032;-83
2021/05/14 11:27:01;;;;;;;2.75;0.70;;;;;;;;;;5038029;28;20056;-83
2021/05/14 11:29:36;;;;;;;1.70;0.40;;;;;;;;;;5041685;28;20135;-83
2021/05/14 11:32:36;;;;;;;1.70;0.20;;;;;;;;;;5058875;28;20021;-83
2021/05/14 11:35:15;;;;;;;1.15;0.30;;;;;;;;;;5035969;28;20040;-83
2021/05/14 11:37:55;;;;;;;0.55;0.22;;;;;;;;;;5051097;28;20002;-83
2021/05/14 11:40:29;;;;;;;0.35;0.20;;;;;;;;;;5055912;28;20025;-83
2021/05/14 11:42:59;;;;;;;0.85;0.30;;;;;;;;;;5054692;28;20021;-82
2021/05/14 11:45:32;;;;;;;0.40;0.40;;;;;;;;;;5056028;28;20041;-82
2021/05/14 11:48:00;;;;;;;0.43;0.30;;;;;;;;;;5057731;28;20074;-83
2021/05/14 11:50:27;;;;;;;0.60;0.50;;;;;;;;;;5058362;28;20051;-82
2021/05/14 11:52:54;;;;;;;0.85;0.45;;;;;;;;;;5058095;28;21586;-82
2021/05/14 11:55:20;;;;;;;0.90;0.50;;;;;;;;;;5062237;28;20036;-83
2021/05/14 11:57:48;;;;;;;0.17;0.17;;;;;;;;;;5057351;28;20086;-83
2021/05/14 12:00:14;;;;;;;1.23;0.30;;;;;;;;;;5058849;28;20084;-83
2021/05/14 12:02:42;;;;;;;0.55;0.40;;;;;;;;;;5059710;28;20025;-83
2021/05/14 12:05:09;;;;;;;0.52;0.30;;;;;;;;;;5059673;28;20086;-83
2021/05/14 12:07:36;;;;;;;0.43;0.28;;;;;;;;;;5063368;28;20024;-82
2021/05/14 12:10:04;;;;;;;0.20;0.20;;;;;;;;;;5067013;28;20102;-82
2021/05/14 12:12:30;;;;;;;1.85;0.30;;;;;;;;;;5069473;28;20029;-82
2021/05/14 12:15:09;;;;;;;0.30;0.30;;;;;;;;;;5065683;28;20029;-82
2021/05/14 12:17:39;;;;;;;0.20;0.20;;;;;;;;;;5064850;28;20037;-82
2021/05/14 12:20:25;;;;;;;1.73;0.35;;;;;;;;;;5066119;28;20359;-81
2021/05/14 12:22:54;;;;;;;0.75;0.30;;;;;;;;;;5064653;28;20115;-82
2021/05/14 12:25:24;;;;;;;1.55;0.57;;;;;;;;;;5060688;28;20053;-82
2021/05/14 12:27:50;;;;;;;0.30;0.30;;;;;;;;;;5056865;28;20036;-82
2021/05/14 12:30:17;;;;;;;1.98;0.43;;;;;;;;;;5061327;28;20461;-81
2021/05/14 12:32:53;;;;;;;0.88;0.50;;;;;;;;;;5061088;28;20033;-83
2021/05/14 12:35:23;;;;;;;0.40;0.40;;;;;;;;;;5057946;28;20401;-82
2021/05/14 12:37:54;;;;;;;1.23;1.10;;;;;;;;;;5058633;28;20091;-82
2021/05/14 12:40:30;;;;;;;1.20;0.60;;;;;;;;;;5052779;28;20461;-82
2021/05/14 12:43:06;;;;;;;0.63;0.40;;;;;;;;;;5056325;28;20279;-82
2021/05/14 12:45:35;;;;;;;1.95;0.40;;;;;;;;;;5055031;28;20029;-81
2021/05/14 12:48:01;;;;;;;0.38;0.38;;;;;;;;;;5059347;28;20026;-84
2021/05/14 12:50:27;;;;;;;1.08;0.38;;;;;;;;;;5060231;28;20029;-82
2021/05/14 12:52:53;;;;;;;0.63;0.30;;;;;;;;;;5060398;28;20032;-84
2021/05/14 12:55:20;;;;;;;0.30;0.30;;;;;;;;;;5059613;28;20036;-83
2021/05/14 12:57:54;;;;;;;0.73;0.40;;;;;;;;;;5058689;28;20029;-83
2021/05/14 13:00:22;;;;;;;0.30;0.25;;;;;;;;;;5058688;28;20085;-83
2021/05/14 13:02:53;;;;;;;0.22;0.22;;;;;;;;;;5061177;28;20084;-83
2021/05/14 13:05:19;;;;;;;2.35;1.98;;;;;;;;;;5061875;28;20032;-84
2021/05/14 13:08:01;;;;;;;0.57;0.40;;;;;;;;;;5060871;28;20037;-83
2021/05/14 13:10:34;;;;;;;2.03;0.35;;;;;;;;;;5068559;28;20033;-84
2021/05/14 13:13:00;;;;;;;0.88;0.20;;;;;;;;;;5073826;28;20020;-84
2021/05/14 13:15:26;;;;;;;0.57;0.30;;;;;;;;;;5058687;28;20032;-82
2021/05/14 13:17:53;;;;;;;2.30;0.70;;;;;;;;;;5060497;28;20047;-83
2021/05/14 13:20:19;;;;;;;0.50;0.35;;;;;;;;;;5059332;28;20036;-83
2021/05/14 13:22:45;;;;;;;0.90;0.70;;;;;;;;;;5065762;28;20025;-83
2021/05/14 13:25:11;;;;;;;1.63;0.30;;;;;;;;;;5060052;28;20025;-83
2021/05/14 13:27:40;;;;;;;2.47;0.40;;;;;;;;;;5050798;28;20389;-83
2021/05/14 13:30:07;;;;;;;0.50;0.50;;;;;;;;;;5058417;28;20035;-82
2021/05/14 13:32:34;;;;;;;0.63;0.25;;;;;;;;;;5059432;28;20486;-83
2021/05/14 13:35:00;;;;;;;1.40;0.70;;;;;;;;;;5065821;28;20032;-83
2021/05/14 13:37:27;;;;;;;1.10;0.80;;;;;;;;;;5065384;28;20020;-83
2021/05/14 13:39:53;;;;;;;0.30;0.30;;;;;;;;;;5066977;28;20397;-83
2021/05/14 13:42:19;;;;;;;0.55;0.40;;;;;;;;;;5067205;28;20053;-85
2021/05/14 13:44:45;;;;;;;0.55;0.55;;;;;;;;;;5066209;28;20063;-84
2021/05/14 13:47:11;;;;;;;0.30;0.30;;;;;;;;;;5060850;28;20017;-83
2021/05/14 13:49:37;;;;;;;0.45;0.30;;;;;;;;;;5066495;28;20024;-82
2021/05/14 13:52:04;;;;;;;0.20;0.20;;;;;;;;;;5059491;28;20016;-83
2021/05/14 13:54:30;;;;;;;0.75;0.40;;;;;;;;;;5058840;28;20440;-83
2021/05/14 13:56:56;;;;;;;0.20;0.20;;;;;;;;;;5058075;28;20009;-82
2021/05/14 13:59:22;;;;;;;0.75;0.65;;;;;;;;;;5058560;28;20055;-82
2021/05/14 14:01:49;;;;;;;0.50;0.22;;;;;;;;;;5060403;28;20029;-82
2021/05/14 14:04:15;;;;;;;1.23;0.52;;;;;;;;;;5059933;28;20040;-82
2021/05/14 14:06:41;;;;;;;0.17;0.17;;;;;;;;;;5059663;28;20366;-83
2021/05/14 14:09:07;;;;;;;0.43;0.43;;;;;;;;;;5060477;28;20058;-83
2021/05/14 14:11:33;;;;;;;1.98;0.50;;;;;;;;;;5059946;28;20033;-83
2021/05/14 14:13:59;;;;;;;1.25;0.40;;;;;;;;;;5060132;28;20031;-82
2021/05/14 14:16:25;;;;;;;0.40;0.20;;;;;;;;;;5058959;28;20074;-83
2021/05/14 14:18:52;;;;;;;0.40;0.25;;;;;;;;;;5059365;28;20112;-83
2021/05/14 14:21:18;;;;;;;0.22;0.20;;;;;;;;;;5059701;28;20033;-83
2021/05/14 14:23:44;;;;;;;0.75;0.35;;;;;;;;;;5059392;28;20029;-82
2021/05/14 14:26:10;;;;;;;0.80;0.30;;;;;;;;;;5059609;28;20028;-83
2021/05/14 14:28:37;;;;;;;0.85;0.52;;;;;;;;;;5058476;28;20046;-83
2021/05/14 14:31:03;;;;;;;1.08;0.90;;;;;;;;;;5059313;28;20079;-83
2021/05/14 14:33:29;;;;;;;1.02;0.68;;;;;;;;;;5057822;28;20515;-82
2021/05/14 14:35:55;;;;;;;0.38;0.20;;;;;;;;;;5060169;28;20029;-83
2021/05/14 14:38:21;;;;;;;0.30;0.20;;;;;;;;;;5058980;28;20060;-82
2021/05/14 14:40:47;;;;;;;0.20;0.20;;;;;;;;;;5059773;28;20032;-83
2021/05/14 14:43:13;;;;;;;0.50;0.30;;;;;;;;;;5058476;28;20386;-83
2021/05/14 14:45:40;;;;;;;0.40;0.40;;;;;;;;;;5060796;28;20017;-82
2021/05/14 14:48:07;;;;;;;0.77;0.25;;;;;;;;;;5059810;28;20025;-82
2021/05/14 14:50:33;;;;;;;0.20;0.20;;;;;;;;;;5059320;28;20035;-82
2021/05/14 14:52:59;;;;;;;2.88;0.30;;;;;;;;;;5059675;28;20444;-82